Urb Las Campinas I, Puerto Rico
Current Conditions -  °F | °C
As of 7:04 PM on Friday 19 Dec 2014 (Local Time) from TJNR Reporting Station
Broken Clouds Broken Clouds  
Wind Chill: 78°   Ceiling: 7500
Heat Index: 80°   Visibility: 10mi
Dew Point: 70°   Wind: 6mph
Humidity: 76%   Direction: 50°NE
Pressure: 30"   Gusts: NA
Location:  18.1853°N, 65.8667°W
Report Text: TJNR 192304Z AUTO 05005KT 10SM SCT026 BKN075 26/21 A3000 RMK AO2 T02560211
Loading
Personal Weather Stations






























Interactive Weather Map New forecast layout! Learn more

10-Day Weather Forecast

Advertisements
Track Severe Weather on mobile